Time;durP1;ratioP1;P1;durP2;ratioP2;P2;SDS_P1;SDS_P2;PMS_P1;PMS_P2;Temp;Humidity;BMP_temperature;BMP_pressure;BME280_temperature;BME280_humidity;BME280_pressure;Samples;Min_cycle;Max_cycle;Signal;HPM_P1;HPM_P2
2022/09/18 00:00:56;;;;;;;16.63;15.03;;;;;;;10.63;100.00;100640.16;4957039;28;20467;-47
2022/09/18 00:03:23;;;;;;;20.90;14.83;;;;;;;10.60;100.00;100638.72;4974972;28;20489;-49
2022/09/18 00:05:51;;;;;;;16.33;14.63;;;;;;;10.63;100.00;100632.97;4973933;28;20526;-49
2022/09/18 00:08:20;;;;;;;14.87;13.47;;;;;;;10.63;100.00;100645.47;4974603;28;20505;-48
2022/09/18 00:10:48;;;;;;;15.80;14.37;;;;;;;10.46;100.00;100629.81;4974952;28;20438;-50
2022/09/18 00:13:15;;;;;;;15.37;13.97;;;;;;;10.42;100.00;100625.09;4963493;28;20484;-48
2022/09/18 00:15:43;;;;;;;16.67;14.00;;;;;;;10.35;100.00;100634.88;4941461;28;20534;-49
2022/09/18 00:18:10;;;;;;;17.40;15.50;;;;;;;10.36;100.00;100628.56;4963023;28;20495;-47
2022/09/18 00:20:38;;;;;;;15.73;14.33;;;;;;;10.42;100.00;100615.22;4960490;28;20467;-47
2022/09/18 00:23:05;;;;;;;16.60;14.87;;;;;;;10.42;100.00;100615.22;4971800;28;20430;-51
2022/09/18 00:25:34;;;;;;;15.27;13.77;;;;;;;10.41;100.00;100615.44;4973700;28;21162;-47
2022/09/18 00:28:02;;;;;;;15.30;14.07;;;;;;;10.44;100.00;100617.72;4974448;28;20455;-48
2022/09/18 00:30:30;;;;;;;18.13;13.77;;;;;;;10.43;100.00;100616.88;4974883;28;20497;-48
2022/09/18 00:32:57;;;;;;;15.67;14.13;;;;;;;10.44;100.00;100612.38;4956528;28;20511;-47
2022/09/18 00:35:25;;;;;;;15.87;14.27;;;;;;;10.41;100.00;100620.78;4953572;28;20500;-47
2022/09/18 00:37:52;;;;;;;15.67;14.17;;;;;;;10.36;100.00;100613.34;4954826;29;20464;-50
2022/09/18 00:40:20;;;;;;;15.00;13.70;;;;;;;10.30;100.00;100619.50;4955429;29;20443;-48
2022/09/18 00:42:49;;;;;;;14.10;13.00;;;;;;;10.30;100.00;100626.66;4954665;29;20503;-49
2022/09/18 00:45:17;;;;;;;16.80;12.83;;;;;;;10.31;100.00;100620.31;4953515;28;20527;-50
2022/09/18 00:47:47;;;;;;;18.30;13.97;;;;;;;10.31;100.00;100625.63;4954566;28;20526;-50
2022/09/18 00:50:18;;;;;;;14.57;13.20;;;;;;;10.31;100.00;100625.63;4955013;29;20444;-47
2022/09/18 00:52:50;;;;;;;15.87;14.03;;;;;;;10.33;100.00;100618.28;4970543;28;20486;-53
2022/09/18 00:55:22;;;;;;;14.73;13.70;;;;;;;10.36;100.00;100610.69;4972699;28;20474;-49
2022/09/18 00:57:56;;;;;;;16.10;14.80;;;;;;;10.35;100.00;100606.41;4973240;28;20513;-53
2022/09/18 01:00:23;;;;;;;16.20;14.60;;;;;;;10.35;100.00;100602.91;4973827;28;20439;-47
2022/09/18 01:02:51;;;;;;;23.20;16.10;;;;;;;10.31;100.00;100597.13;4973431;28;20439;-47
2022/09/18 01:05:29;;;;;;;17.00;15.50;;;;;;;10.24;100.00;100596.31;4970092;28;20494;-49
2022/09/18 01:08:13;;;;;;;18.27;16.43;;;;;;;10.18;100.00;100602.44;4953616;28;20523;-49
2022/09/18 01:10:55;;;;;;;18.20;16.00;;;;;;;10.09;100.00;100600.91;4954261;29;20491;-52
2022/09/18 01:13:34;;;;;;;19.30;17.37;;;;;;;10.00;100.00;100599.41;4947371;29;20488;-48
2022/09/18 01:16:08;;;;;;;18.80;17.10;;;;;;;9.94;100.00;100605.53;4979790;28;20468;-51
2022/09/18 01:18:43;;;;;;;36.23;34.20;;;;;;;9.92;100.00;100607.53;5008564;28;20437;-50
2022/09/18 01:21:12;;;;;;;27.60;18.60;;;;;;;9.93;100.00;100615.34;5008600;28;20495;-48
2022/09/18 01:24:05;;;;;;;19.90;18.30;;;;;;;9.99;100.00;100601.25;5012365;28;20449;-48
2022/09/18 01:26:47;;;;;;;20.37;18.63;;;;;;;9.99;100.00;100600.44;5011143;28;20945;-50
2022/09/18 01:29:25;;;;;;;19.57;17.60;;;;;;;9.99;100.00;100593.25;5012022;28;20487;-49
2022/09/18 01:31:57;;;;;;;20.00;18.00;;;;;;;9.98;100.00;100591.59;5012076;28;20850;-47
2022/09/18 01:34:30;;;;;;;21.87;20.17;;;;;;;9.97;100.00;100586.50;5011460;28;20894;-47
2022/09/18 01:37:03;;;;;;;20.67;18.93;;;;;;;9.94;100.00;100595.69;5011369;28;20445;-52
2022/09/18 01:39:37;;;;;;;20.57;18.70;;;;;;;9.91;100.00;100600.59;5011806;28;20924;-47
2022/09/18 01:42:08;;;;;;;23.20;18.40;;;;;;;9.88;100.00;100601.81;5011456;28;20483;-50
2022/09/18 01:44:40;;;;;;;23.17;21.07;;;;;;;9.88;100.00;100588.50;5011367;28;20515;-51
2022/09/18 01:47:13;;;;;;;23.10;19.57;;;;;;;9.88;100.00;100591.16;5010992;28;20465;-51
2022/09/18 01:49:45;;;;;;;20.73;18.70;;;;;;;9.92;100.00;100600.38;4972554;28;20447;-51
2022/09/18 01:52:19;;;;;;;20.03;18.23;;;;;;;10.00;100.00;100602.09;4995453;28;20429;-52
2022/09/18 01:54:50;;;;;;;20.43;18.53;;;;;;;10.10;100.00;100599.03;5010620;28;20534;-54
2022/09/18 01:57:22;;;;;;;22.10;20.03;;;;;;;10.16;100.00;100596.44;5010375;28;20858;-51
2022/09/18 01:59:56;;;;;;;19.80;18.10;;;;;;;10.25;100.00;100605.94;5011398;28;20436;-51
2022/09/18 02:02:31;;;;;;;17.80;16.80;;;;;;;10.26;100.00;100602.25;5010727;28;20437;-53
2022/09/18 02:05:02;;;;;;;19.03;16.97;;;;;;;10.30;100.00;100598.19;5011005;28;20460;-54
2022/09/18 02:07:37;;;;;;;16.77;15.43;;;;;;;10.31;100.00;100605.13;5011334;28;20469;-51
2022/09/18 02:10:07;;;;;;;15.73;14.80;;;;;;;10.25;100.00;100597.09;5012121;28;20486;-53
2022/09/18 02:12:38;;;;;;;16.93;15.33;;;;;;;10.19;100.00;100596.06;5010380;28;20842;-50
2022/09/18 02:15:11;;;;;;;15.30;14.13;;;;;;;10.19;100.00;100595.22;4973500;28;20466;-50
2022/09/18 02:17:43;;;;;;;18.07;15.53;;;;;;;10.17;100.00;100574.13;5010891;28;20858;-54
2022/09/18 02:20:18;;;;;;;16.40;15.00;;;;;;;10.14;100.00;100571.03;5002731;28;20441;-52
2022/09/18 02:22:49;;;;;;;16.17;15.00;;;;;;;10.14;100.00;100571.84;5010686;28;20429;-47
2022/09/18 02:25:23;;;;;;;16.33;15.13;;;;;;;10.09;100.00;100568.94;5009972;28;20465;-51
2022/09/18 02:27:53;;;;;;;17.03;15.60;;;;;;;10.09;100.00;100568.09;5010776;28;20449;-49
2022/09/18 02:30:23;;;;;;;17.17;15.80;;;;;;;10.12;100.00;100565.88;5011653;28;20445;-50
2022/09/18 02:32:54;;;;;;;17.53;15.90;;;;;;;10.07;100.00;100570.94;5010587;28;20444;-54
2022/09/18 02:35:25;;;;;;;14.97;14.27;;;;;;;10.01;100.00;100579.72;5010080;28;20519;-47
2022/09/18 02:37:58;;;;;;;15.17;14.10;;;;;;;9.95;100.00;100569.88;5010712;28;20445;-48
2022/09/18 02:40:37;;;;;;;14.73;13.90;;;;;;;9.89;100.00;100573.31;5011149;28;20437;-47
2022/09/18 02:43:18;;;;;;;15.07;14.17;;;;;;;9.85;100.00;100575.56;5011010;28;20847;-47
2022/09/18 02:45:56;;;;;;;12.77;12.30;;;;;;;9.84;100.00;100578.41;5009987;28;20969;-47
2022/09/18 02:48:55;;;;;;;15.07;14.00;;;;;;;9.88;100.00;100582.34;5010571;28;20991;-51
2022/09/18 02:51:31;;;;;;;16.53;15.50;;;;;;;9.89;100.00;100586.63;4977558;28;20480;-50
2022/09/18 02:54:04;;;;;;;17.10;15.83;;;;;;;9.84;100.00;100592.56;5011514;28;20432;-52
2022/09/18 02:56:39;;;;;;;16.63;15.40;;;;;;;9.81;100.00;100590.28;5009475;28;21112;-50
2022/09/18 02:59:12;;;;;;;17.00;16.30;;;;;;;9.69;100.00;100591.84;5010138;28;20518;-51
2022/09/18 03:01:44;;;;;;;19.10;17.30;;;;;;;9.70;100.00;100593.50;5010817;28;20440;-54
2022/09/18 03:04:15;;;;;;;18.33;16.83;;;;;;;9.64;100.00;100588.94;5010519;28;20469;-53
2022/09/18 03:06:42;;;;;;;16.10;15.20;;;;;;;9.55;100.00;100586.63;5009463;28;21052;-52
2022/09/18 03:09:10;;;;;;;17.27;16.43;;;;;;;9.62;100.00;100579.47;5009933;28;20432;-50
2022/09/18 03:11:37;;;;;;;15.70;14.67;;;;;;;9.61;100.00;100592.00;5009966;28;20444;-52
2022/09/18 03:14:05;;;;;;;15.50;14.53;;;;;;;9.70;100.00;100590.84;4985264;28;21278;-53
2022/09/18 03:16:33;;;;;;;15.50;14.47;;;;;;;9.73;100.00;100578.97;4996036;28;20535;-49
2022/09/18 03:19:02;;;;;;;16.37;14.90;;;;;;;9.73;100.00;100585.13;5000974;28;20464;-54
2022/09/18 03:21:30;;;;;;;16.13;15.23;;;;;;;9.76;100.00;100590.06;5012810;28;20433;-49
2022/09/18 03:23:57;;;;;;;15.80;14.83;;;;;;;9.80;100.00;100582.47;5014467;28;20459;-54
2022/09/18 03:26:25;;;;;;;16.90;15.23;;;;;;;9.82;100.00;100583.13;5013425;28;20477;-54
2022/09/18 03:28:52;;;;;;;14.70;14.00;;;;;;;9.82;100.00;100580.47;5014473;28;20938;-53
2022/09/18 03:31:20;;;;;;;14.50;13.50;;;;;;;9.76;100.00;100583.91;5014611;28;20437;-52
2022/09/18 03:33:48;;;;;;;15.00;13.77;;;;;;;9.71;100.00;100573.00;5014354;28;20432;-52
2022/09/18 03:36:17;;;;;;;15.87;14.67;;;;;;;9.67;100.00;100577.06;5013017;28;20457;-50
2022/09/18 03:38:44;;;;;;;14.40;13.67;;;;;;;9.66;100.00;100586.06;5013839;28;20432;-52
2022/09/18 03:41:12;;;;;;;16.23;14.90;;;;;;;9.62;100.00;100580.31;5014006;28;20503;-53
2022/09/18 03:43:39;;;;;;;15.97;14.97;;;;;;;9.59;100.00;100575.38;5014097;28;20853;-54
2022/09/18 03:46:07;;;;;;;15.33;14.73;;;;;;;9.58;100.00;100579.06;5012865;28;20480;-51
2022/09/18 03:48:35;;;;;;;16.17;15.13;;;;;;;9.57;100.00;100580.06;5013475;28;20436;-48
2022/09/18 03:51:02;;;;;;;15.70;14.70;;;;;;;9.56;100.00;100583.75;5013462;28;21085;-53
2022/09/18 03:53:31;;;;;;;16.60;15.67;;;;;;;9.60;100.00;100585.00;5013657;28;20429;-48
2022/09/18 03:55:59;;;;;;;16.00;15.20;;;;;;;9.60;100.00;100581.53;5012738;28;20535;-51
2022/09/18 03:58:26;;;;;;;16.90;15.50;;;;;;;9.61;100.00;100589.34;5013377;28;21044;-47
2022/09/18 04:00:54;;;;;;;15.37;14.33;;;;;;;9.61;100.00;100586.66;5013509;28;20499;-54
2022/09/18 04:03:21;;;;;;;16.57;15.30;;;;;;;9.63;100.00;100584.63;5013345;28;20437;-49
2022/09/18 04:05:49;;;;;;;18.13;16.23;;;;;;;9.70;100.00;100590.84;5012702;28;20464;-53
2022/09/18 04:08:18;;;;;;;15.20;14.40;;;;;;;9.67;100.00;100583.22;5013261;28;20481;-49
2022/09/18 04:10:48;;;;;;;16.43;15.33;;;;;;;9.72;100.00;100579.97;5013660;28;20440;-54
2022/09/18 04:13:16;;;;;;;16.97;15.50;;;;;;;9.76;100.00;100592.72;4974278;28;20481;-55
2022/09/18 04:15:44;;;;;;;18.13;17.00;;;;;;;9.85;100.00;100580.06;4986095;28;20633;-53
2022/09/18 04:18:11;;;;;;;18.77;17.27;;;;;;;9.90;100.00;100581.13;5013196;28;20869;-53
2022/09/18 04:20:39;;;;;;;18.43;17.00;;;;;;;9.91;100.00;100588.09;5003999;28;20441;-51
2022/09/18 04:23:06;;;;;;;16.57;15.40;;;;;;;9.89;100.00;100595.44;5013051;28;20433;-50
2022/09/18 04:25:34;;;;;;;19.27;16.60;;;;;;;9.88;100.00;100600.97;5012527;28;20465;-53
2022/09/18 04:28:03;;;;;;;17.40;15.97;;;;;;;9.82;100.00;100581.28;5012741;28;20477;-54
2022/09/18 04:30:30;;;;;;;17.37;16.27;;;;;;;9.82;100.00;100575.13;5013681;28;20850;-54
2022/09/18 04:32:58;;;;;;;16.13;15.37;;;;;;;9.78;100.00;100563.22;5012729;28;20433;-52
2022/09/18 04:35:26;;;;;;;18.00;16.60;;;;;;;9.81;100.00;100558.31;5012672;28;20527;-54
2022/09/18 04:37:54;;;;;;;18.20;16.73;;;;;;;9.83;100.00;100569.59;5012996;28;20593;-54
2022/09/18 04:40:22;;;;;;;18.00;16.20;;;;;;;9.85;100.00;100566.75;5013217;28;20511;-51
2022/09/18 04:42:49;;;;;;;17.50;16.33;;;;;;;9.82;100.00;100564.47;5012603;28;20491;-52
2022/09/18 04:45:18;;;;;;;15.73;14.60;;;;;;;9.77;100.00;100557.06;5011880;28;20465;-54
2022/09/18 04:47:47;;;;;;;16.63;15.20;;;;;;;9.78;100.00;100556.06;5012283;28;20484;-54
2022/09/18 04:50:15;;;;;;;15.60;14.50;;;;;;;9.77;100.00;100556.22;5012967;28;20499;-54
2022/09/18 04:52:43;;;;;;;15.50;14.37;;;;;;;9.78;100.00;100558.72;5012121;28;20484;-54
2022/09/18 04:55:10;;;;;;;15.97;14.90;;;;;;;9.75;100.00;100569.75;5011762;28;20465;-54
2022/09/18 04:57:38;;;;;;;17.77;16.43;;;;;;;9.78;100.00;100574.69;5012285;28;20457;-53
2022/09/18 05:00:08;;;;;;;17.80;16.30;;;;;;;9.76;100.00;100563.44;5012008;28;20437;-55
2022/09/18 05:02:37;;;;;;;17.50;16.50;;;;;;;9.74;100.00;100565.44;5011843;28;20430;-52
2022/09/18 05:05:05;;;;;;;17.03;15.80;;;;;;;9.79;100.00;100578.19;5011293;28;20523;-53
2022/09/18 05:07:33;;;;;;;18.03;16.80;;;;;;;9.73;100.00;100579.78;5011976;28;20504;-54
2022/09/18 05:10:01;;;;;;;23.00;21.67;;;;;;;9.66;100.00;100578.91;5012450;28;20432;-54
2022/09/18 05:12:28;;;;;;;20.47;18.77;;;;;;;9.68;100.00;100578.69;5011641;28;20869;-48
2022/09/18 05:14:56;;;;;;;17.83;16.47;;;;;;;9.73;100.00;100570.97;4972911;28;20523;-52
2022/09/18 05:17:24;;;;;;;18.37;17.00;;;;;;;9.77;100.00;100572.22;5011593;28;20519;-51
2022/09/18 05:19:53;;;;;;;18.30;17.17;;;;;;;9.82;100.00;100577.78;5003009;28;20854;-54
2022/09/18 05:22:20;;;;;;;17.27;16.20;;;;;;;9.83;100.00;100569.59;5011672;28;20849;-49
2022/09/18 05:24:48;;;;;;;19.77;17.83;;;;;;;9.79;100.00;100556.88;5011825;28;20866;-47
2022/09/18 05:27:15;;;;;;;17.77;16.57;;;;;;;9.80;100.00;100554.00;5010721;28;20511;-53
2022/09/18 05:29:43;;;;;;;17.33;15.87;;;;;;;9.84;100.00;100543.78;5011951;28;20437;-53
2022/09/18 05:32:10;;;;;;;20.27;17.23;;;;;;;9.87;100.00;100554.06;5011308;28;20433;-54
2022/09/18 05:34:38;;;;;;;20.50;16.80;;;;;;;9.84;100.00;100554.44;5011171;28;20453;-52
2022/09/18 05:37:07;;;;;;;17.43;15.93;;;;;;;9.79;100.00;100551.56;5011194;28;20453;-54
2022/09/18 05:39:35;;;;;;;16.53;15.30;;;;;;;9.76;100.00;100555.44;5011476;28;20438;-53
2022/09/18 05:42:03;;;;;;;17.83;16.93;;;;;;;9.82;100.00;100559.97;5010519;28;20441;-54
2022/09/18 05:44:30;;;;;;;18.27;17.13;;;;;;;9.87;100.00;100562.88;5010792;28;20437;-54
2022/09/18 05:46:58;;;;;;;16.10;15.10;;;;;;;9.88;100.00;100559.19;5010855;28;20460;-54
2022/09/18 05:49:26;;;;;;;18.30;16.20;;;;;;;9.97;100.00;100552.66;5011086;28;20867;-53
2022/09/18 05:51:54;;;;;;;18.57;16.97;;;;;;;10.09;100.00;100550.28;5010997;28;20437;-54
2022/09/18 05:54:23;;;;;;;18.00;16.60;;;;;;;10.14;100.00;100549.72;5010139;28;20437;-54
2022/09/18 05:56:50;;;;;;;18.70;16.73;;;;;;;10.12;100.00;100552.56;5010757;28;20457;-53
2022/09/18 05:59:18;;;;;;;19.37;17.97;;;;;;;10.20;100.00;100548.91;5007457;28;20938;-52
2022/09/18 06:01:46;;;;;;;16.70;15.67;;;;;;;10.25;100.00;100552.63;5000483;28;20483;-53
2022/09/18 06:04:14;;;;;;;20.23;16.13;;;;;;;10.42;100.00;100547.78;5010603;28;21109;-47
2022/09/18 06:06:41;;;;;;;18.00;16.03;;;;;;;11.13;100.00;100545.44;5010153;28;20453;-51
2022/09/18 06:09:09;;;;;;;18.07;16.43;;;;;;;11.83;100.00;100548.28;5010307;28;20508;-52
2022/09/18 06:11:38;;;;;;;17.80;16.60;;;;;;;12.21;100.00;100548.38;5010813;28;20476;-52
2022/09/18 06:14:05;;;;;;;17.57;16.47;;;;;;;12.68;100.00;100541.75;4985817;28;20481;-51
2022/09/18 06:16:33;;;;;;;20.00;17.37;;;;;;;13.28;96.81;100535.81;4996572;28;20886;-54
2022/09/18 06:19:06;;;;;;;17.30;15.60;;;;;;;13.68;89.91;100530.88;5001221;28;20502;-48
2022/09/18 06:21:34;;;;;;;18.47;14.87;;;;;;;13.52;87.74;100544.03;5010488;28;20429;-49
2022/09/18 06:24:01;;;;;;;14.03;13.00;;;;;;;13.51;89.97;100532.50;5009559;28;20437;-54
2022/09/18 06:26:30;;;;;;;14.90;13.70;;;;;;;13.45;88.30;100533.38;5010242;28;20515;-53
2022/09/18 06:28:59;;;;;;;14.73;13.43;;;;;;;12.78;88.09;100537.56;5010894;28;20481;-54
2022/09/18 06:31:27;;;;;;;12.50;11.47;;;;;;;12.35;92.51;100541.94;5010966;28;20445;-53
2022/09/18 06:33:55;;;;;;;14.17;12.80;;;;;;;12.16;96.47;100545.50;5010472;28;20799;-52
2022/09/18 06:36:22;;;;;;;12.33;11.37;;;;;;;11.96;96.84;100547.41;5009890;28;20499;-54
2022/09/18 06:38:50;;;;;;;15.60;13.03;;;;;;;11.91;97.79;100549.91;5010371;28;20428;-50
2022/09/18 06:41:18;;;;;;;13.50;12.10;;;;;;;12.20;99.21;100541.38;4998197;28;20946;-53
2022/09/18 06:43:49;;;;;;;13.63;12.63;;;;;;;12.61;97.82;100546.31;4993883;28;20442;-54
2022/09/18 06:46:17;;;;;;;14.20;12.67;;;;;;;13.60;100.00;100552.59;5001902;28;20528;-53
2022/09/18 06:48:48;;;;;;;13.50;12.43;;;;;;;14.16;93.24;100554.28;5011146;28;20571;-52
2022/09/18 06:51:15;;;;;;;15.80;13.17;;;;;;;13.91;86.02;100551.69;5011455;28;20811;-54
2022/09/18 06:53:44;;;;;;;13.87;11.03;;;;;;;13.47;83.83;100552.72;5011410;28;21012;-55
2022/09/18 06:56:11;;;;;;;11.30;10.37;;;;;;;13.01;85.62;100568.31;5014871;28;20472;-55
2022/09/18 06:58:39;;;;;;;11.70;10.70;;;;;;;13.46;87.56;100559.13;5015538;28;20803;-49
2022/09/18 07:01:06;;;;;;;17.70;10.77;;;;;;;13.73;83.94;100551.66;5015138;28;20448;-54
2022/09/18 07:03:35;;;;;;;10.97;10.27;;;;;;;13.71;81.75;100557.22;5015674;28;20436;-49
2022/09/18 07:06:03;;;;;;;11.40;10.60;;;;;;;13.83;82.94;100546.59;5014778;28;20473;-50
2022/09/18 07:08:31;;;;;;;11.03;10.03;;;;;;;13.59;83.70;100564.34;5014994;28;20534;-51
2022/09/18 07:11:00;;;;;;;11.87;9.40;;;;;;;13.24;85.74;100560.53;4997473;28;20508;-55
2022/09/18 07:13:30;;;;;;;9.50;8.90;;;;;;;12.71;87.18;100547.50;4977325;28;20494;-49
2022/09/18 07:15:58;;;;;;;10.07;8.90;;;;;;;12.31;88.15;100548.72;4991758;28;20503;-52
2022/09/18 07:18:26;;;;;;;9.20;8.33;;;;;;;11.90;93.45;100561.63;5014378;28;20827;-54
2022/09/18 07:20:55;;;;;;;9.03;8.20;;;;;;;11.63;96.72;100558.16;5001184;28;20469;-49
2022/09/18 07:23:23;;;;;;;10.73;9.63;;;;;;;11.56;100.00;100570.69;4993782;28;20438;-56
2022/09/18 07:25:50;;;;;;;10.33;9.40;;;;;;;11.47;100.00;100558.56;4991931;28;21676;-50
2022/09/18 07:28:18;;;;;;;10.70;9.40;;;;;;;11.24;100.00;100560.84;4993046;28;20480;-51
2022/09/18 07:30:46;;;;;;;9.57;8.83;;;;;;;11.13;100.00;100567.63;4993832;28;20541;-54
2022/09/18 07:33:13;;;;;;;12.50;9.90;;;;;;;11.28;100.00;100562.91;4994093;28;20488;-52
2022/09/18 07:35:41;;;;;;;11.27;10.03;;;;;;;11.38;100.00;100557.16;4992308;28;20465;-54
2022/09/18 07:38:10;;;;;;;14.27;10.00;;;;;;;11.47;100.00;100559.38;4993348;28;20484;-53
2022/09/18 07:40:40;;;;;;;11.27;10.40;;;;;;;11.77;99.81;100561.66;4993555;28;20508;-52
2022/09/18 07:43:09;;;;;;;10.97;10.10;;;;;;;12.18;97.75;100567.50;4992203;28;20500;-51
2022/09/18 07:45:38;;;;;;;10.97;9.97;;;;;;;12.37;93.64;100571.13;4991824;28;20485;-55
2022/09/18 07:48:07;;;;;;;14.33;9.80;;;;;;;12.30;93.87;100567.66;4992203;28;20465;-55
2022/09/18 07:50:34;;;;;;;10.10;9.20;;;;;;;12.27;93.59;100568.91;4993267;28;20492;-49
2022/09/18 07:53:04;;;;;;;14.33;10.30;;;;;;;12.65;93.67;100563.59;4991851;28;20433;-49
2022/09/18 07:55:35;;;;;;;10.60;9.63;;;;;;;13.13;91.88;100566.63;4991112;28;20887;-55
2022/09/18 07:58:04;;;;;;;11.37;9.00;;;;;;;13.18;87.22;100566.78;4991277;28;20453;-50
2022/09/18 08:00:35;;;;;;;12.30;9.67;;;;;;;13.77;89.49;100576.97;4992834;28;20449;-47
2022/09/18 08:03:04;;;;;;;10.20;8.63;;;;;;;13.57;87.32;100571.81;4991139;28;20430;-47
2022/09/18 08:05:33;;;;;;;8.83;7.97;;;;;;;12.45;89.91;100586.94;4989880;28;21105;-52
2022/09/18 08:08:04;;;;;;;9.57;8.90;;;;;;;11.91;94.68;100568.63;4991811;28;20462;-54
2022/09/18 08:10:34;;;;;;;12.40;11.60;;;;;;;11.39;93.93;100566.78;4992740;28;21049;-51
2022/09/18 08:13:02;;;;;;;14.47;13.50;;;;;;;11.00;96.59;100552.41;4991625;28;20516;-53
2022/09/18 08:15:30;;;;;;;14.40;13.50;;;;;;;10.77;100.00;100562.66;4989625;28;20463;-50
2022/09/18 08:17:58;;;;;;;13.53;12.60;;;;;;;10.54;100.00;100565.63;4991720;28;20461;-55
2022/09/18 08:20:25;;;;;;;15.40;14.60;;;;;;;10.38;100.00;100544.69;4993075;28;20437;-52
2022/09/18 08:22:53;;;;;;;10.77;10.27;;;;;;;10.27;100.00;100541.78;4990656;28;20963;-53
2022/09/18 08:25:22;;;;;;;10.83;10.33;;;;;;;10.27;100.00;100544.44;4991426;28;21070;-56
2022/09/18 08:27:50;;;;;;;10.10;9.80;;;;;;;10.41;100.00;100532.81;4992408;28;20466;-52
2022/09/18 08:30:18;;;;;;;11.20;10.60;;;;;;;10.53;100.00;100540.03;4992909;28;20484;-53
2022/09/18 08:32:46;;;;;;;11.10;10.63;;;;;;;10.73;100.00;100537.38;4991504;28;20442;-50
2022/09/18 08:35:14;;;;;;;12.73;12.03;;;;;;;10.99;100.00;100556.09;5011113;28;20465;-53
2022/09/18 08:37:47;;;;;;;13.07;12.33;;;;;;;11.29;100.00;100561.84;5012694;28;20465;-54
2022/09/18 08:40:18;;;;;;;13.10;12.40;;;;;;;11.45;100.00;100571.31;5013222;28;20433;-53
2022/09/18 08:43:00;;;;;;;14.47;13.30;;;;;;;11.42;100.00;100577.06;5012235;28;20425;-52
2022/09/18 08:45:41;;;;;;;12.90;12.30;;;;;;;11.35;100.00;100568.25;5012074;28;20523;-52
2022/09/18 08:48:15;;;;;;;13.60;12.60;;;;;;;11.19;100.00;100569.47;5011684;28;20460;-51
2022/09/18 08:50:49;;;;;;;13.37;12.43;;;;;;;11.15;100.00;100562.88;5012715;28;20504;-54
2022/09/18 08:53:23;;;;;;;11.70;11.00;;;;;;;11.14;100.00;100553.22;4973358;28;20466;-52
2022/09/18 08:55:53;;;;;;;12.20;11.27;;;;;;;11.07;100.00;100553.25;4987484;28;20548;-54
2022/09/18 08:58:30;;;;;;;13.10;11.80;;;;;;;11.01;100.00;100558.56;5012602;28;20453;-49
2022/09/18 09:01:02;;;;;;;11.03;10.30;;;;;;;10.90;100.00;100553.84;5012730;28;20484;-54
2022/09/18 09:03:41;;;;;;;10.80;10.07;;;;;;;10.87;100.00;100544.38;5012653;28;20472;-47
2022/09/18 09:06:26;;;;;;;12.57;11.77;;;;;;;10.94;100.00;100549.72;5011370;28;21137;-58
2022/09/18 09:09:21;;;;;;;11.67;11.17;;;;;;;11.05;100.00;100551.81;5012177;28;20429;-52
2022/09/18 09:11:57;;;;;;;12.00;11.37;;;;;;;11.23;100.00;100554.66;5012559;28;20430;-52
2022/09/18 09:14:38;;;;;;;12.87;12.07;;;;;;;11.51;100.00;100549.13;4981783;28;20435;-54
2022/09/18 09:17:37;;;;;;;14.00;12.87;;;;;;;11.70;100.00;100551.00;5033429;22;20493;-40
2022/09/18 09:20:17;;;;;;;13.30;12.30;;;;;;;11.25;100.00;100536.63;5016865;28;20487;-40
2022/09/18 09:22:56;;;;;;;12.30;11.60;;;;;;;10.83;100.00;100537.00;5013245;28;21140;-42
2022/09/18 09:25:30;;;;;;;10.93;10.53;;;;;;;10.82;100.00;100522.84;5011521;28;20476;-42
2022/09/18 09:28:10;;;;;;;11.83;11.20;;;;;;;10.78;100.00;100515.47;5011792;28;20461;-43
2022/09/18 09:30:46;;;;;;;12.20;11.50;;;;;;;10.87;100.00;100508.91;5012021;28;20476;-42
2022/09/18 09:33:20;;;;;;;11.10;10.50;;;;;;;10.96;100.00;100500.47;5011960;28;20433;-46
2022/09/18 09:35:52;;;;;;;11.57;10.77;;;;;;;10.92;100.00;100496.59;4998972;28;20517;-45
2022/09/18 09:38:36;;;;;;;11.77;11.20;;;;;;;11.14;95.65;100488.38;4992661;28;20485;-44
2022/09/18 09:41:13;;;;;;;12.33;11.30;;;;;;;11.44;95.82;100500.25;4992492;28;20932;-42
2022/09/18 09:43:44;;;;;;;11.80;11.40;;;;;;;11.65;96.44;100500.81;4992538;28;20468;-44
2022/09/18 09:46:23;;;;;;;11.53;11.00;;;;;;;11.93;97.29;100508.59;4991338;28;20474;-45
2022/09/18 09:48:57;;;;;;;12.73;11.93;;;;;;;12.22;95.04;100512.56;4992687;28;20461;-43
2022/09/18 09:51:30;;;;;;;12.07;11.20;;;;;;;12.52;94.62;100513.66;4992230;28;20524;-42
2022/09/18 09:54:00;;;;;;;11.17;10.70;;;;;;;12.64;91.23;100511.94;4992357;28;20863;-44
2022/09/18 09:56:37;;;;;;;12.00;11.20;;;;;;;12.80;89.67;100517.81;4991230;28;20893;-43
2022/09/18 09:59:17;;;;;;;11.27;10.73;;;;;;;12.88;91.16;100501.47;4961089;28;20443;-44
2022/09/18 10:01:55;;;;;;;12.00;10.90;;;;;;;13.09;87.83;100507.31;4968753;28;20439;-45
2022/09/18 10:04:34;;;;;;;10.50;10.10;;;;;;;13.58;89.46;100502.97;4970293;28;20435;-41
2022/09/18 10:07:10;;;;;;;10.30;9.80;;;;;;;13.84;83.78;100494.63;4970770;28;20510;-41
2022/09/18 10:09:45;;;;;;;9.63;9.20;;;;;;;13.95;86.03;100495.75;4970149;28;21069;-41
2022/09/18 10:12:21;;;;;;;9.10;8.60;;;;;;;14.09;80.81;100497.25;4968936;28;20442;-43
2022/09/18 10:14:52;;;;;;;8.90;8.40;;;;;;;14.00;80.73;100501.25;4970681;28;20470;-46
2022/09/18 10:17:22;;;;;;;8.30;8.00;;;;;;;13.79;80.15;100508.72;4966440;28;20461;-41
2022/09/18 10:19:49;;;;;;;7.67;7.20;;;;;;;14.11;84.47;100495.97;4969487;28;20461;-42
2022/09/18 10:22:22;;;;;;;7.80;7.40;;;;;;;13.85;81.75;100510.50;4969485;28;20439;-41
2022/09/18 10:24:55;;;;;;;8.60;7.70;;;;;;;13.88;80.32;100500.38;4970582;28;20487;-41
2022/09/18 10:27:23;;;;;;;8.03;7.63;;;;;;;13.71;82.52;100502.81;4967253;28;21175;-41
2022/09/18 10:29:53;;;;;;;9.00;8.40;;;;;;;13.64;82.61;100512.81;4969608;28;20474;-42
2022/09/18 10:32:37;;;;;;;8.43;7.70;;;;;;;13.47;84.98;100523.25;4968005;28;20430;-41
2022/09/18 10:35:43;;;;;;;6.57;6.37;;;;;;;13.00;86.19;100532.69;4967200;28;21019;-41
2022/09/18 10:38:32;;;;;;;7.40;6.83;;;;;;;12.38;89.79;100521.97;4953494;28;20435;-41
2022/09/18 10:41:32;;;;;;;8.57;7.10;;;;;;;12.38;93.92;100519.28;4968255;28;20521;-41
2022/09/18 10:44:05;;;;;;;6.90;6.50;;;;;;;12.53;97.30;100527.84;4967424;28;20466;-41
2022/09/18 10:46:36;;;;;;;8.33;6.40;;;;;;;12.55;97.46;100512.41;4968912;28;20462;-42
2022/09/18 10:49:19;;;;;;;6.80;6.30;;;;;;;12.63;96.72;100520.19;4968649;28;20443;-42
2022/09/18 10:51:47;;;;;;;7.13;6.73;;;;;;;12.61;94.28;100514.22;4969171;28;20482;-42
2022/09/18 10:54:16;;;;;;;6.43;6.03;;;;;;;12.49;92.61;100522.09;4969874;28;20443;-42
2022/09/18 10:56:44;;;;;;;6.80;6.40;;;;;;;12.50;97.04;100525.59;4969013;28;20455;-41
2022/09/18 10:59:33;;;;;;;6.70;6.37;;;;;;;12.75;97.85;100523.81;4968709;28;20506;-41
2022/09/18 11:02:03;;;;;;;6.80;6.30;;;;;;;12.79;96.42;100519.66;4968251;28;20438;-41
2022/09/18 11:04:33;;;;;;;7.37;6.90;;;;;;;12.86;95.63;100525.78;4968332;28;20530;-44
2022/09/18 11:07:06;;;;;;;7.20;6.60;;;;;;;12.94;95.26;100520.16;4968650;28;20458;-44
2022/09/18 11:09:37;;;;;;;6.20;5.70;;;;;;;12.82;95.61;100529.94;4969478;28;20431;-42
2022/09/18 11:12:14;;;;;;;7.20;6.60;;;;;;;12.91;95.65;100522.47;4969389;28;20830;-43
2022/09/18 11:14:45;;;;;;;6.90;6.40;;;;;;;13.10;96.63;100511.66;4970095;28;20463;-42
2022/09/18 11:17:23;;;;;;;7.13;6.70;;;;;;;13.09;95.22;100511.84;4968636;28;20509;-40
2022/09/18 11:19:54;;;;;;;7.10;6.50;;;;;;;12.83;94.60;100515.53;4969090;28;20442;-40
2022/09/18 11:22:34;;;;;;;6.50;6.00;;;;;;;12.66;94.66;100501.84;4967192;28;20567;-44
2022/09/18 11:25:23;;;;;;;6.27;5.67;;;;;;;12.38;94.87;100503.25;4968610;28;20991;-43
2022/09/18 11:27:53;;;;;;;6.00;5.50;;;;;;;12.25;96.59;100504.13;4965446;28;20462;-41